Time;durP1;ratioP1;P1;durP2;ratioP2;P2;SDS_P1;SDS_P2;PMS_P1;PMS_P2;Temp;Humidity;BMP_temperature;BMP_pressure;BME280_temperature;BME280_humidity;BME280_pressure;Samples;Min_cycle;Max_cycle;Signal;HPM_P1;HPM_P2
2023/12/04 00:00:06;;;;;;;11.23;2.35;;;7.90;99.90;;;;;;5002338;28;20037;-74
2023/12/04 00:02:32;;;;;;;3.55;1.20;;;7.90;99.90;;;;;;5009698;28;20080;-75
2023/12/04 00:04:58;;;;;;;1.77;1.05;;;7.90;99.90;;;;;;5006631;28;20545;-74
2023/12/04 00:07:23;;;;;;;5.05;1.33;;;7.90;99.90;;;;;;5018991;28;20583;-75
2023/12/04 00:09:49;;;;;;;11.70;1.67;;;7.90;99.90;;;;;;5030290;28;20014;-74
2023/12/04 00:12:14;;;;;;;3.20;0.80;;;7.80;99.90;;;;;;5028434;28;20036;-74
2023/12/04 00:14:40;;;;;;;3.97;1.58;;;7.90;99.90;;;;;;5014994;28;20144;-74
2023/12/04 00:17:06;;;;;;;3.17;0.90;;;7.80;99.90;;;;;;5005525;28;20429;-74
2023/12/04 00:19:32;;;;;;;2.33;1.40;;;7.80;99.90;;;;;;5014891;28;20025;-74
2023/12/04 00:21:57;;;;;;;8.30;1.15;;;7.70;99.90;;;;;;5003470;28;20037;-73
2023/12/04 00:24:23;;;;;;;4.15;1.42;;;7.80;99.90;;;;;;5020583;28;20073;-74
2023/12/04 00:26:48;;;;;;;3.50;0.93;;;7.80;99.90;;;;;;5005383;28;20570;-74
2023/12/04 00:29:14;;;;;;;11.80;1.23;;;7.80;99.90;;;;;;5019829;28;20045;-74
2023/12/04 00:31:40;;;;;;;5.15;2.05;;;7.80;99.90;;;;;;5006905;28;20049;-74
2023/12/04 00:34:05;;;;;;;5.38;0.88;;;7.90;99.90;;;;;;5021532;28;20053;-74
2023/12/04 00:36:31;;;;;;;1.15;1.05;;;7.80;99.90;;;;;;5004681;28;20635;-74
2023/12/04 00:38:57;;;;;;;15.43;1.90;;;7.70;99.90;;;;;;5016040;28;20033;-74
2023/12/04 00:41:22;;;;;;;0.40;0.40;;;7.70;99.90;;;;;;5002831;28;20076;-74
2023/12/04 00:43:48;;;;;;;18.73;1.60;;;7.70;99.90;;;;;;5021793;28;20469;-74
2023/12/04 00:46:14;;;;;;;0.68;0.68;;;7.70;99.90;;;;;;5011291;28;20042;-74
2023/12/04 00:48:39;;;;;;;5.75;1.70;;;7.80;99.90;;;;;;5017286;28;20033;-74
2023/12/04 00:51:06;;;;;;;12.50;1.73;;;7.80;99.90;;;;;;5020009;28;20409;-73
2023/12/04 00:53:31;;;;;;;4.35;1.52;;;7.80;99.90;;;;;;5011879;28;20110;-74
2023/12/04 00:55:57;;;;;;;6.75;1.15;;;7.70;99.90;;;;;;5015322;28;20601;-74
2023/12/04 00:58:22;;;;;;;1.42;0.60;;;7.80;99.90;;;;;;5008441;28;20073;-74
2023/12/04 01:00:50;;;;;;;3.38;0.82;;;7.80;99.90;;;;;;5016210;28;20033;-75
2023/12/04 01:03:16;;;;;;;2.72;0.98;;;7.70;99.90;;;;;;5003613;28;20486;-74
2023/12/04 01:05:42;;;;;;;3.28;1.58;;;7.80;99.90;;;;;;5019929;28;20040;-75
2023/12/04 01:08:07;;;;;;;7.50;1.15;;;7.70;99.90;;;;;;5004285;28;20034;-75
2023/12/04 01:10:33;;;;;;;8.13;1.25;;;7.70;99.90;;;;;;5017972;28;20496;-75
2023/12/04 01:12:59;;;;;;;4.80;2.05;;;7.70;99.90;;;;;;5007028;28;20520;-75
2023/12/04 01:15:24;;;;;;;3.35;2.15;;;7.70;99.90;;;;;;5014778;28;20522;-75
2023/12/04 01:17:50;;;;;;;14.23;1.40;;;7.70;99.90;;;;;;5009194;28;20033;-74
2023/12/04 01:20:16;;;;;;;1.20;0.73;;;7.70;99.90;;;;;;5020766;28;20034;-75
2023/12/04 01:22:42;;;;;;;7.78;1.63;;;7.70;99.90;;;;;;5005884;28;20037;-74
2023/12/04 01:25:08;;;;;;;1.25;0.55;;;7.70;99.90;;;;;;5018088;28;20033;-74
2023/12/04 01:27:35;;;;;;;5.65;0.93;;;7.80;99.90;;;;;;5003761;28;20037;-75
2023/12/04 01:30:01;;;;;;;10.98;0.70;;;7.70;99.90;;;;;;5011696;28;20107;-75
2023/12/04 01:32:27;;;;;;;9.80;1.60;;;7.80;99.90;;;;;;5017383;28;20643;-75
2023/12/04 01:34:52;;;;;;;3.80;0.85;;;7.80;99.90;;;;;;5003994;28;20060;-74
2023/12/04 01:37:18;;;;;;;4.72;1.23;;;7.80;99.90;;;;;;5020776;28;20029;-75
2023/12/04 01:39:44;;;;;;;4.93;1.17;;;7.70;99.90;;;;;;5006909;28;20022;-75
2023/12/04 01:42:10;;;;;;;6.65;0.80;;;7.70;99.90;;;;;;5009118;28;20374;-74
2023/12/04 01:44:36;;;;;;;0.77;0.70;;;7.70;99.90;;;;;;5003695;28;20060;-73
2023/12/04 01:47:03;;;;;;;9.75;1.73;;;7.70;99.90;;;;;;5017543;28;20032;-75
2023/12/04 01:49:29;;;;;;;6.47;1.38;;;7.70;99.90;;;;;;4998863;28;20044;-74
2023/12/04 01:51:56;;;;;;;4.13;1.45;;;7.70;99.90;;;;;;5018685;28;20312;-74
2023/12/04 01:54:22;;;;;;;8.18;1.70;;;7.60;99.90;;;;;;5006162;28;20043;-75
2023/12/04 01:56:48;;;;;;;5.90;1.35;;;7.70;99.90;;;;;;5012316;28;20040;-75
2023/12/04 01:59:16;;;;;;;7.55;0.60;;;7.70;99.90;;;;;;5002148;28;21086;-75
2023/12/04 02:01:42;;;;;;;2.88;0.88;;;7.70;99.90;;;;;;5011361;28;20039;-75
2023/12/04 02:04:08;;;;;;;5.63;1.55;;;7.70;99.90;;;;;;5003694;28;20076;-75
2023/12/04 02:06:34;;;;;;;1.73;0.17;;;7.70;99.90;;;;;;5018001;28;20030;-75
2023/12/04 02:09:01;;;;;;;0.45;0.45;;;7.80;99.90;;;;;;5002109;28;20481;-75
2023/12/04 02:11:28;;;;;;;6.88;1.83;;;7.80;99.90;;;;;;5018254;28;20520;-75
2023/12/04 02:13:54;;;;;;;3.17;0.90;;;7.80;99.90;;;;;;5016094;28;20026;-75
2023/12/04 02:16:24;;;;;;;5.60;1.20;;;7.80;99.90;;;;;;5001671;28;20555;-76
2023/12/04 02:18:50;;;;;;;4.50;0.88;;;7.80;99.90;;;;;;5024957;28;20029;-74
2023/12/04 02:21:16;;;;;;;0.77;0.45;;;7.80;99.90;;;;;;5004652;28;20037;-74
2023/12/04 02:23:42;;;;;;;4.30;0.98;;;7.70;99.90;;;;;;5020341;28;20033;-74
2023/12/04 02:26:16;;;;;;;2.22;0.82;;;7.80;99.90;;;;;;5008599;28;20489;-74
2023/12/04 02:28:48;;;;;;;3.80;1.45;;;7.80;99.90;;;;;;5011617;28;20036;-74
2023/12/04 02:31:16;;;;;;;2.38;0.47;;;7.90;99.90;;;;;;5005607;28;20044;-74
2023/12/04 02:33:45;;;;;;;3.55;0.93;;;7.80;99.90;;;;;;5021318;28;20386;-74
2023/12/04 02:36:12;;;;;;;8.35;2.00;;;7.80;99.90;;;;;;5002230;28;20403;-74
2023/12/04 02:38:38;;;;;;;10.60;1.88;;;7.80;99.90;;;;;;5021968;28;20099;-74
2023/12/04 02:41:04;;;;;;;1.10;0.50;;;7.80;99.90;;;;;;5008952;28;20116;-74
2023/12/04 02:43:29;;;;;;;3.03;0.40;;;7.80;99.90;;;;;;5016208;28;20026;-74
2023/12/04 02:45:55;;;;;;;1.65;0.55;;;7.80;99.90;;;;;;5012421;28;20765;-75
2023/12/04 02:48:20;;;;;;;4.25;1.58;;;7.80;99.90;;;;;;5039093;28;20021;-74
2023/12/04 02:50:46;;;;;;;2.05;1.35;;;7.80;99.90;;;;;;5004862;28;20042;-74
2023/12/04 02:53:12;;;;;;;3.70;0.90;;;7.90;99.90;;;;;;5021518;28;20550;-74
2023/12/04 02:55:37;;;;;;;3.30;1.60;;;7.80;99.90;;;;;;5004276;28;20730;-74
2023/12/04 02:58:03;;;;;;;26.92;0.60;;;7.90;99.90;;;;;;5019516;28;20033;-74
2023/12/04 03:00:29;;;;;;;13.23;1.15;;;7.90;99.90;;;;;;5010282;28;20029;-74
2023/12/04 03:02:54;;;;;;;3.13;0.45;;;7.80;99.90;;;;;;5008497;28;20057;-75
2023/12/04 03:05:20;;;;;;;12.07;3.15;;;7.80;99.90;;;;;;5015460;28;20038;-74
2023/12/04 03:07:45;;;;;;;5.40;1.48;;;7.90;99.90;;;;;;5004266;28;20033;-74
2023/12/04 03:10:11;;;;;;;3.00;1.38;;;7.80;99.90;;;;;;5009694;28;20157;-75
2023/12/04 03:12:37;;;;;;;14.73;0.95;;;7.90;99.90;;;;;;5006264;28;21666;-75
2023/12/04 03:15:04;;;;;;;2.83;1.42;;;7.80;99.90;;;;;;5015298;28;20037;-75
2023/12/04 03:17:29;;;;;;;11.93;1.75;;;7.90;99.90;;;;;;5003467;28;20124;-75
2023/12/04 03:19:55;;;;;;;2.72;0.70;;;7.90;99.90;;;;;;5019483;28;21669;-75
2023/12/04 03:22:21;;;;;;;10.85;1.00;;;7.90;99.90;;;;;;5000395;28;20030;-74
2023/12/04 03:24:47;;;;;;;4.40;0.90;;;7.80;99.90;;;;;;5014558;28;20612;-75
2023/12/04 03:27:13;;;;;;;3.60;1.10;;;7.70;99.90;;;;;;5007518;28;20087;-75
2023/12/04 03:29:38;;;;;;;1.73;0.57;;;7.70;99.90;;;;;;5013338;28;21163;-74
2023/12/04 03:32:04;;;;;;;4.55;0.95;;;7.70;99.90;;;;;;5007864;28;20042;-75
2023/12/04 03:34:30;;;;;;;2.13;0.77;;;7.70;99.90;;;;;;5020587;28;20068;-74
2023/12/04 03:36:55;;;;;;;4.57;1.45;;;7.60;99.90;;;;;;5005718;28;20044;-74
2023/12/04 03:39:21;;;;;;;6.25;1.63;;;7.70;99.90;;;;;;5017643;28;20065;-75
2023/12/04 03:41:47;;;;;;;2.95;2.42;;;7.70;99.90;;;;;;5014367;28;20025;-75
2023/12/04 03:44:13;;;;;;;1.98;0.70;;;7.60;99.90;;;;;;5005350;28;20030;-75
2023/12/04 03:46:38;;;;;;;9.02;1.23;;;7.60;99.90;;;;;;5021821;28;20029;-75
2023/12/04 03:49:05;;;;;;;0.80;0.47;;;7.60;99.90;;;;;;5000766;28;20025;-74
2023/12/04 03:51:30;;;;;;;6.05;0.63;;;7.60;99.90;;;;;;5017950;28;20026;-74
2023/12/04 03:53:56;;;;;;;5.10;1.13;;;7.60;99.90;;;;;;5008181;28;20060;-74
2023/12/04 03:56:22;;;;;;;1.88;1.05;;;7.60;99.90;;;;;;5012311;28;20041;-74
2023/12/04 03:58:47;;;;;;;0.52;0.45;;;7.60;99.90;;;;;;5002700;28;20191;-73
2023/12/04 04:01:13;;;;;;;0.38;0.38;;;7.60;99.90;;;;;;5018268;28;20060;-74
2023/12/04 04:03:39;;;;;;;2.50;1.20;;;7.60;99.90;;;;;;5008616;28;20026;-73
2023/12/04 04:06:04;;;;;;;4.25;1.05;;;7.60;99.90;;;;;;5025428;28;20039;-73
2023/12/04 04:08:30;;;;;;;18.58;2.28;;;7.70;99.90;;;;;;4996755;28;20056;-73
2023/12/04 04:10:56;;;;;;;3.83;1.13;;;7.70;99.90;;;;;;5013294;28;20042;-73
2023/12/04 04:13:21;;;;;;;5.82;1.75;;;7.70;99.90;;;;;;5008137;28;20128;-73
2023/12/04 04:15:47;;;;;;;0.95;0.77;;;7.60;99.90;;;;;;5018547;28;20667;-73
2023/12/04 04:18:12;;;;;;;8.48;0.65;;;7.60;99.90;;;;;;4995008;28;20124;-73
2023/12/04 04:20:38;;;;;;;4.82;0.65;;;7.60;99.90;;;;;;5021276;28;20437;-73
2023/12/04 04:23:04;;;;;;;5.88;1.33;;;7.60;99.90;;;;;;5015134;28;20029;-73
2023/12/04 04:25:29;;;;;;;1.88;0.88;;;7.60;99.90;;;;;;5013464;28;20045;-73
2023/12/04 04:27:55;;;;;;;2.35;0.70;;;7.60;99.90;;;;;;5027259;28;20033;-73
2023/12/04 04:30:20;;;;;;;4.03;1.13;;;7.60;99.90;;;;;;5006457;28;20468;-73
2023/12/04 04:32:46;;;;;;;1.40;1.00;;;7.60;99.90;;;;;;5023512;28;20042;-73
2023/12/04 04:35:12;;;;;;;3.70;2.20;;;7.60;99.90;;;;;;5015557;28;20084;-73
2023/12/04 04:37:37;;;;;;;2.20;2.00;;;7.60;99.90;;;;;;5023493;28;20120;-73
2023/12/04 04:40:03;;;;;;;2.33;0.90;;;7.70;99.90;;;;;;5017897;28;20026;-72
2023/12/04 04:42:29;;;;;;;0.40;0.40;;;7.70;99.90;;;;;;5018093;28;20116;-72
2023/12/04 04:44:55;;;;;;;1.83;0.55;;;7.70;99.90;;;;;;5008745;28;20043;-73
2023/12/04 04:47:20;;;;;;;3.97;1.27;;;7.70;99.90;;;;;;5018188;28;20044;-72
2023/12/04 04:49:46;;;;;;;0.68;0.65;;;7.70;99.90;;;;;;5006096;28;20112;-72
2023/12/04 04:52:12;;;;;;;4.70;0.47;;;7.70;99.90;;;;;;5020499;28;20052;-73
2023/12/04 04:54:37;;;;;;;2.22;1.10;;;7.70;99.90;;;;;;5011354;28;20530;-73
2023/12/04 04:57:03;;;;;;;8.73;1.02;;;7.60;99.90;;;;;;5020707;28;20236;-73
2023/12/04 04:59:30;;;;;;;1.10;0.85;;;7.60;99.90;;;;;;5016222;28;20795;-73
2023/12/04 05:01:56;;;;;;;2.28;1.38;;;7.60;99.90;;;;;;5027864;28;20025;-73
2023/12/04 05:04:22;;;;;;;5.10;1.02;;;7.60;99.90;;;;;;5011575;28;20116;-74
2023/12/04 05:06:47;;;;;;;1.63;1.27;;;7.60;99.90;;;;;;5012973;28;20051;-72
2023/12/04 05:09:13;;;;;;;2.60;1.33;;;7.60;99.90;;;;;;5021849;28;20658;-72
2023/12/04 05:11:39;;;;;;;6.43;3.20;;;7.60;99.90;;;;;;4992023;28;20025;-74
2023/12/04 05:14:04;;;;;;;0.47;0.47;;;7.70;99.90;;;;;;5020799;28;20041;-72
2023/12/04 05:16:30;;;;;;;2.15;0.85;;;7.70;99.90;;;;;;4997908;28;20033;-71
2023/12/04 05:18:55;;;;;;;4.57;1.33;;;7.70;99.90;;;;;;5015153;28;20041;-71
2023/12/04 05:21:21;;;;;;;0.50;0.50;;;7.70;99.90;;;;;;5011378;28;20552;-73
2023/12/04 05:23:47;;;;;;;15.35;1.35;;;7.70;99.90;;;;;;5021950;28;20109;-73
2023/12/04 05:26:13;;;;;;;3.40;1.25;;;7.70;99.90;;;;;;5025302;28;20027;-75
2023/12/04 05:28:38;;;;;;;1.27;0.98;;;7.70;99.90;;;;;;5028104;28;20029;-75
2023/12/04 05:31:05;;;;;;;3.45;1.35;;;7.60;99.90;;;;;;5014766;28;20060;-75
2023/12/04 05:33:31;;;;;;;2.40;1.20;;;7.60;99.90;;;;;;5025410;28;20046;-74
2023/12/04 05:35:57;;;;;;;1.88;0.65;;;7.60;99.90;;;;;;5015679;28;20525;-74
2023/12/04 05:38:23;;;;;;;16.05;2.20;;;7.70;99.90;;;;;;5022291;28;20528;-74
2023/12/04 05:40:48;;;;;;;1.30;1.20;;;7.70;99.90;;;;;;5021943;28;20037;-74
2023/12/04 05:43:14;;;;;;;13.00;1.88;;;7.80;99.90;;;;;;5021239;28;20026;-74
2023/12/04 05:45:40;;;;;;;12.73;1.45;;;7.80;99.90;;;;;;5032864;28;20026;-75
2023/12/04 05:48:05;;;;;;;1.02;0.98;;;7.90;99.90;;;;;;5031982;28;20021;-74
2023/12/04 05:50:31;;;;;;;2.83;1.27;;;8.00;99.90;;;;;;5029646;28;20546;-75
2023/12/04 05:52:57;;;;;;;5.82;1.63;;;8.10;99.90;;;;;;5029829;28;20389;-75
2023/12/04 05:55:23;;;;;;;9.13;2.33;;;8.10;99.90;;;;;;5032351;28;20021;-75
2023/12/04 05:57:48;;;;;;;1.27;0.75;;;8.10;99.90;;;;;;5020801;28;20033;-73
2023/12/04 06:00:14;;;;;;;9.82;1.23;;;8.10;99.90;;;;;;5026642;28;20021;-74
2023/12/04 06:02:42;;;;;;;7.78;1.10;;;8.10;99.90;;;;;;5018563;28;20032;-74
2023/12/04 06:05:08;;;;;;;12.93;2.30;;;8.10;99.90;;;;;;5027304;28;20104;-75
2023/12/04 06:07:34;;;;;;;14.02;1.38;;;8.10;99.90;;;;;;5019959;28;20112;-74
2023/12/04 06:10:00;;;;;;;4.20;1.88;;;8.10;99.90;;;;;;5021611;28;20041;-75
2023/12/04 06:12:25;;;;;;;2.10;1.10;;;8.10;99.90;;;;;;5018465;28;20037;-75
2023/12/04 06:14:51;;;;;;;2.30;1.55;;;8.10;99.90;;;;;;5025528;28;20048;-75
2023/12/04 06:17:17;;;;;;;6.75;1.35;;;8.10;99.90;;;;;;5019673;28;20124;-75
2023/12/04 06:19:42;;;;;;;2.15;1.35;;;8.10;99.90;;;;;;5022310;28;20072;-75
2023/12/04 06:22:08;;;;;;;2.38;1.48;;;8.20;99.90;;;;;;5013746;28;20117;-75
2023/12/04 06:24:34;;;;;;;3.20;1.52;;;8.20;99.90;;;;;;5018112;28;20059;-74
2023/12/04 06:27:00;;;;;;;4.03;2.10;;;8.20;99.90;;;;;;5012989;28;20080;-74
2023/12/04 06:29:26;;;;;;;6.72;2.45;;;8.20;99.90;;;;;;5013135;28;20041;-75
2023/12/04 06:31:52;;;;;;;8.45;1.23;;;8.20;99.90;;;;;;5024566;28;20453;-75
2023/12/04 06:34:18;;;;;;;2.97;0.50;;;8.20;99.90;;;;;;5016895;28;20041;-75
2023/12/04 06:36:44;;;;;;;12.30;1.30;;;8.20;99.90;;;;;;5025826;28;20221;-73
2023/12/04 06:39:12;;;;;;;13.82;2.33;;;8.20;99.90;;;;;;5023240;28;20026;-75
2023/12/04 06:41:39;;;;;;;2.78;1.52;;;8.20;99.90;;;;;;5031461;28;20382;-74
2023/12/04 06:44:05;;;;;;;4.45;0.85;;;8.20;99.90;;;;;;5018571;28;20029;-73
2023/12/04 06:46:35;;;;;;;1.27;1.17;;;8.20;99.90;;;;;;5025479;28;20021;-73
2023/12/04 06:49:01;;;;;;;1.88;1.17;;;8.30;99.90;;;;;;5020017;28;20375;-75
2023/12/04 06:51:26;;;;;;;2.28;1.27;;;8.40;99.90;;;;;;5025737;28;20502;-74
2023/12/04 06:53:52;;;;;;;2.70;1.50;;;8.50;99.90;;;;;;5023893;28;20076;-74
2023/12/04 06:56:18;;;;;;;3.45;1.08;;;8.50;99.90;;;;;;5029279;28;20108;-74
2023/12/04 06:58:43;;;;;;;4.82;1.52;;;8.50;99.90;;;;;;5009771;28;20041;-74
2023/12/04 07:01:09;;;;;;;3.75;1.42;;;8.50;99.90;;;;;;5019940;28;20083;-72
2023/12/04 07:03:35;;;;;;;4.15;1.60;;;8.60;99.90;;;;;;5003541;28;20034;-72
2023/12/04 07:06:01;;;;;;;3.45;1.70;;;8.60;99.90;;;;;;5015482;28;20021;-72
2023/12/04 07:08:26;;;;;;;4.05;0.95;;;8.60;99.90;;;;;;5017503;28;20393;-72
2023/12/04 07:10:52;;;;;;;6.28;0.77;;;8.70;99.90;;;;;;4990901;28;20041;-72
2023/12/04 07:13:18;;;;;;;6.63;1.60;;;8.70;99.90;;;;;;5020861;28;20048;-72
2023/12/04 07:15:44;;;;;;;6.22;1.83;;;8.70;99.90;;;;;;5004897;28;20083;-73
2023/12/04 07:18:10;;;;;;;4.28;1.15;;;8.70;99.90;;;;;;5008323;28;20037;-73
2023/12/04 07:20:35;;;;;;;11.80;2.80;;;8.80;99.90;;;;;;5008749;28;20084;-72
2023/12/04 07:23:02;;;;;;;2.63;0.85;;;8.80;99.90;;;;;;5017439;28;20104;-72
2023/12/04 07:25:27;;;;;;;5.45;2.25;;;8.80;99.90;;;;;;5011083;28;20108;-72
2023/12/04 07:27:53;;;;;;;21.42;1.73;;;8.80;99.90;;;;;;5037640;28;20055;-73
2023/12/04 07:30:20;;;;;;;7.70;1.10;;;8.80;99.90;;;;;;5021202;28;20083;-71
2023/12/04 07:32:46;;;;;;;2.70;1.20;;;8.80;99.90;;;;;;5026520;28;20033;-73
2023/12/04 07:35:12;;;;;;;1.50;1.35;;;8.70;99.90;;;;;;5015173;28;20045;-71
2023/12/04 07:37:38;;;;;;;13.30;1.75;;;8.70;99.90;;;;;;5014648;28;20561;-72
2023/12/04 07:40:05;;;;;;;4.00;1.10;;;8.70;99.90;;;;;;5005727;28;20374;-72
2023/12/04 07:42:31;;;;;;;3.67;1.13;;;8.70;99.90;;;;;;5013625;28;20040;-72
2023/12/04 07:44:57;;;;;;;4.82;1.50;;;8.70;99.90;;;;;;5000556;28;20038;-71
2023/12/04 07:47:23;;;;;;;3.60;1.63;;;8.70;99.90;;;;;;5015732;28;20461;-71
2023/12/04 07:49:49;;;;;;;3.72;1.00;;;8.70;99.90;;;;;;5008609;28;20033;-70
2023/12/04 07:52:14;;;;;;;5.70;1.10;;;8.60;99.90;;;;;;4999690;28;20084;-72
2023/12/04 07:54:40;;;;;;;1.80;0.85;;;8.60;99.90;;;;;;5011198;28;20042;-71
2023/12/04 07:57:06;;;;;;;3.83;1.65;;;8.60;99.90;;;;;;4994708;28;20127;-72
2023/12/04 07:59:31;;;;;;;8.55;2.15;;;8.70;99.90;;;;;;5006402;28;20138;-71
2023/12/04 08:01:57;;;;;;;0.88;0.88;;;8.60;99.90;;;;;;4994996;28;20042;-71
2023/12/04 08:04:23;;;;;;;7.65;1.20;;;8.60;99.90;;;;;;5004762;28;20033;-72
2023/12/04 08:06:49;;;;;;;7.75;2.08;;;8.60;99.90;;;;;;4997244;28;20053;-71
2023/12/04 08:09:16;;;;;;;15.32;2.35;;;8.60;99.90;;;;;;5003963;28;20111;-72
2023/12/04 08:11:42;;;;;;;13.30;2.05;;;8.60;99.90;;;;;;4991332;28;20022;-72
2023/12/04 08:14:08;;;;;;;2.63;1.50;;;8.70;99.90;;;;;;5007045;28;20034;-72
2023/12/04 08:16:33;;;;;;;4.30;2.10;;;8.60;99.90;;;;;;4986631;28;20123;-71
2023/12/04 08:18:59;;;;;;;7.95;1.15;;;8.70;99.90;;;;;;5005208;28;20056;-71
2023/12/04 08:21:27;;;;;;;4.00;1.70;;;8.70;99.90;;;;;;4994462;28;20225;-71
2023/12/04 08:23:53;;;;;;;7.20;2.90;;;8.60;99.90;;;;;;5002727;28;20790;-72
2023/12/04 08:26:24;;;;;;;4.13;1.90;;;8.60;99.90;;;;;;4997190;28;20040;-72
2023/12/04 08:28:50;;;;;;;1.02;0.60;;;8.60;99.90;;;;;;5006677;28;20038;-72
2023/12/04 08:31:16;;;;;;;4.22;1.58;;;8.60;99.90;;;;;;5003884;28;20052;-72
2023/12/04 08:33:42;;;;;;;3.78;0.93;;;8.60;99.90;;;;;;4998616;28;20443;-72
2023/12/04 08:36:08;;;;;;;5.47;1.73;;;8.60;99.90;;;;;;5008972;28;20042;-72
2023/12/04 08:38:34;;;;;;;1.98;1.08;;;8.60;99.90;;;;;;4996090;28;20041;-72
2023/12/04 08:41:00;;;;;;;10.85;0.60;;;8.70;99.90;;;;;;5008634;28;20064;-71
2023/12/04 08:43:25;;;;;;;1.95;1.75;;;8.70;99.90;;;;;;4995354;28;20187;-68
2023/12/04 08:45:51;;;;;;;4.68;1.15;;;8.70;99.90;;;;;;5005388;28;20030;-74
2023/12/04 08:48:17;;;;;;;2.80;1.15;;;8.80;99.90;;;;;;5007160;28;20112;-70
2023/12/04 08:50:42;;;;;;;4.32;2.05;;;8.70;99.90;;;;;;5006039;28;20045;-69
2023/12/04 08:53:08;;;;;;;2.53;1.30;;;8.70;99.90;;;;;;4996757;28;21362;-70
2023/12/04 08:55:33;;;;;;;3.45;1.08;;;8.80;99.90;;;;;;5012121;28;20425;-70
2023/12/04 08:58:00;;;;;;;8.50;1.17;;;8.80;99.90;;;;;;4996314;28;20040;-72
2023/12/04 09:00:25;;;;;;;1.48;0.50;;;8.80;99.90;;;;;;5013250;28;20026;-71
2023/12/04 09:02:51;;;;;;;7.55;2.75;;;8.80;99.90;;;;;;5001946;28;20026;-69
2023/12/04 09:05:17;;;;;;;2.55;0.70;;;8.80;99.90;;;;;;5005213;28;20044;-71
2023/12/04 09:07:42;;;;;;;5.15;1.35;;;8.80;99.90;;;;;;5002672;28;20037;-69
2023/12/04 09:10:09;;;;;;;0.68;0.28;;;8.80;99.90;;;;;;5002407;28;20068;-71
2023/12/04 09:12:36;;;;;;;4.72;0.93;;;8.80;99.90;;;;;;5007406;28;20043;-72
2023/12/04 09:15:02;;;;;;;3.40;0.60;;;8.80;99.90;;;;;;5002440;28;20040;-73
2023/12/04 09:17:28;;;;;;;15.70;1.45;;;8.90;99.90;;;;;;5008764;28;20079;-72
2023/12/04 09:19:54;;;;;;;1.02;0.93;;;8.80;99.90;;;;;;5014511;28;20109;-71
2023/12/04 09:22:20;;;;;;;10.15;1.08;;;8.80;99.90;;;;;;5016674;28;20129;-71
2023/12/04 09:24:45;;;;;;;1.95;1.17;;;8.90;99.90;;;;;;5004278;28;20032;-69
2023/12/04 09:27:11;;;;;;;0.47;0.43;;;8.90;99.90;;;;;;5035747;28;20048;-71
2023/12/04 09:29:37;;;;;;;1.05;0.52;;;8.80;99.90;;;;;;5011375;28;20798;-72
2023/12/04 09:32:03;;;;;;;3.10;1.08;;;8.80;99.90;;;;;;5009879;28;20053;-76
2023/12/04 09:34:29;;;;;;;10.43;1.20;;;8.70;99.90;;;;;;5001459;28;20083;-75
2023/12/04 09:36:55;;;;;;;1.02;0.55;;;8.70;99.90;;;;;;5000608;28;20098;-73
2023/12/04 09:39:20;;;;;;;5.13;1.15;;;8.70;99.90;;;;;;4993714;28;20040;-73
2023/12/04 09:41:46;;;;;;;2.80;0.80;;;8.70;99.90;;;;;;5007127;28;20041;-73
2023/12/04 09:44:12;;;;;;;0.80;0.60;;;8.70;99.90;;;;;;4997834;28;20029;-74
2023/12/04 09:46:38;;;;;;;1.63;0.90;;;8.80;99.90;;;;;;5007559;28;20095;-77
2023/12/04 09:49:05;;;;;;;3.83;1.77;;;8.80;99.90;;;;;;5001272;28;20382;-75
2023/12/04 09:51:31;;;;;;;3.40;0.85;;;8.80;99.90;;;;;;5004659;28;20052;-74
2023/12/04 09:54:03;;;;;;;3.83;0.93;;;8.80;99.90;;;;;;5012465;28;20048;-74
2023/12/04 09:56:29;;;;;;;0.90;0.57;;;8.90;99.90;;;;;;4998553;28;20476;-74
2023/12/04 09:58:59;;;;;;;1.38;0.65;;;8.90;99.90;;;;;;5007670;28;20041;-72
2023/12/04 10:01:28;;;;;;;7.22;1.80;;;8.90;99.90;;;;;;4995220;28;20034;-73
2023/12/04 10:03:56;;;;;;;7.68;1.20;;;8.90;99.90;;;;;;5004835;28;20028;-72
2023/12/04 10:06:26;;;;;;;6.53;1.17;;;8.90;99.90;;;;;;4996772;28;20055;-72
2023/12/04 10:08:52;;;;;;;;;;;8.90;99.90;;;;;;5007241;28;20084;-73
2023/12/04 10:11:17;;;;;;;10.00;1.05;;;8.90;99.90;;;;;;4993697;28;20047;-73
2023/12/04 10:13:43;;;;;;;1.90;0.65;;;8.90;99.90;;;;;;5013111;28;20037;-72
2023/12/04 10:16:09;;;;;;;4.47;1.00;;;8.90;99.90;;;;;;4992161;28;20159;-73
2023/12/04 10:18:34;;;;;;;2.17;0.63;;;9.00;99.90;;;;;;5001485;28;20033;-72
2023/12/04 10:21:02;;;;;;;2.22;0.77;;;9.00;99.90;;;;;;4997060;28;20037;-71
2023/12/04 10:23:44;;;;;;;4.43;0.77;;;9.00;99.90;;;;;;5014074;28;20035;-75
2023/12/04 10:26:14;;;;;;;6.10;1.05;;;9.00;99.90;;;;;;4999369;28;20037;-72
2023/12/04 10:28:39;;;;;;;6.45;1.30;;;9.00;99.90;;;;;;5009850;28;20037;-72
2023/12/04 10:31:06;;;;;;;3.05;0.75;;;9.00;99.90;;;;;;4996864;28;20060;-71
2023/12/04 10:33:32;;;;;;;2.70;1.00;;;9.00;99.90;;;;;;5012334;28;20101;-71
2023/12/04 10:35:58;;;;;;;2.40;0.80;;;9.00;99.90;;;;;;5000662;28;20531;-70
2023/12/04 10:38:26;;;;;;;3.67;0.90;;;9.10;99.90;;;;;;5010878;28;20037;-71
2023/12/04 10:40:51;;;;;;;1.95;0.88;;;9.10;99.90;;;;;;4999555;28;20116;-71
2023/12/04 10:43:19;;;;;;;0.40;0.30;;;9.10;99.90;;;;;;5000402;28;20055;-71
2023/12/04 10:45:57;;;;;;;;;;;;;;;;;;;;;
2023/12/04 10:48:23;;;;;;;9.13;1.27;;;9.10;99.90;;;;;;4997722;28;20884;-70
2023/12/04 10:50:49;;;;;;;2.58;1.38;;;9.10;99.90;;;;;;5010681;28;20044;-72
2023/12/04 10:53:17;;;;;;;0.80;0.80;;;9.10;99.90;;;;;;5004610;28;20038;-71
2023/12/04 10:55:44;;;;;;;3.38;1.52;;;9.10;99.90;;;;;;5011596;28;20037;-71
2023/12/04 10:58:12;;;;;;;4.20;0.80;;;9.10;99.90;;;;;;4998305;28;20211;-71
2023/12/04 11:00:43;;;;;;;2.65;1.25;;;9.10;99.90;;;;;;5012177;28;20048;-70
2023/12/04 11:03:15;;;;;;;0.57;0.43;;;9.10;99.90;;;;;;4995569;28;20520;-71
2023/12/04 11:05:41;;;;;;;3.55;1.20;;;9.10;99.90;;;;;;5005548;28;20025;-73
2023/12/04 11:08:11;;;;;;;1.33;0.70;;;9.10;99.90;;;;;;5000471;28;20030;-68
2023/12/04 11:10:54;;;;;;;0.38;0.38;;;9.10;99.90;;;;;;5007798;28;20036;-71
2023/12/04 11:13:28;;;;;;;1.45;0.60;;;9.10;99.90;;;;;;4999823;28;20033;-72
2023/12/04 11:15:59;;;;;;;2.35;0.82;;;9.10;99.90;;;;;;5006267;28;20033;-73
2023/12/04 11:18:27;;;;;;;1.98;0.75;;;9.10;99.90;;;;;;4992659;28;21745;-70
2023/12/04 11:20:58;;;;;;;1.23;0.93;;;9.00;99.90;;;;;;5001367;28;20037;-71
2023/12/04 11:23:25;;;;;;;3.13;1.08;;;9.00;99.90;;;;;;4995973;28;20140;-70
2023/12/04 11:25:51;;;;;;;1.48;0.73;;;8.90;99.90;;;;;;5006634;28;20671;-71
2023/12/04 11:28:18;;;;;;;0.38;0.38;;;9.00;99.90;;;;;;4997054;28;20033;-73
2023/12/04 11:30:45;;;;;;;1.40;0.85;;;8.90;99.90;;;;;;5004605;28;20129;-74
2023/12/04 11:33:11;;;;;;;1.65;0.85;;;8.90;99.90;;;;;;4997423;28;20069;-73
2023/12/04 11:35:39;;;;;;;4.25;0.98;;;8.80;99.90;;;;;;5007196;28;20057;-74
2023/12/04 11:38:07;;;;;;;6.47;2.05;;;8.80;99.90;;;;;;4992041;28;20628;-74
2023/12/04 11:40:34;;;;;;;10.02;1.40;;;8.80;99.90;;;;;;5009535;28;20036;-76
2023/12/04 11:43:00;;;;;;;10.07;1.60;;;8.80;99.90;;;;;;4996983;28;20025;-76
2023/12/04 11:45:31;;;;;;;1.58;0.93;;;8.80;99.90;;;;;;5000615;28;20056;-74
2023/12/04 11:47:57;;;;;;;11.45;1.13;;;8.80;99.90;;;;;;5002786;28;20036;-74
2023/12/04 11:50:25;;;;;;;4.53;1.30;;;8.80;99.90;;;;;;4999642;28;20045;-76
2023/12/04 11:52:51;;;;;;;2.97;1.15;;;8.90;99.90;;;;;;5002403;28;20041;-76
2023/12/04 11:55:20;;;;;;;1.13;0.77;;;8.90;99.90;;;;;;4998889;28;20047;-76
2023/12/04 11:57:46;;;;;;;4.50;1.55;;;8.80;99.90;;;;;;5008612;28;20059;-75
2023/12/04 12:00:22;;;;;;;2.85;1.30;;;8.80;99.90;;;;;;5001194;28;20112;-74
2023/12/04 12:03:09;;;;;;;1.30;0.75;;;8.80;99.90;;;;;;5014660;28;20052;-74
2023/12/04 12:05:38;;;;;;;5.80;1.67;;;8.80;99.90;;;;;;4995022;28;20750;-74
2023/12/04 12:08:05;;;;;;;8.98;1.90;;;8.80;99.90;;;;;;5016595;28;20037;-74
2023/12/04 12:10:31;;;;;;;3.55;1.65;;;8.80;99.90;;;;;;5002812;28;20041;-73
2023/12/04 12:12:57;;;;;;;6.70;2.38;;;8.70;99.90;;;;;;5008405;28;20055;-72
2023/12/04 12:15:23;;;;;;;2.30;0.98;;;8.80;99.90;;;;;;4997184;28;20045;-73
2023/12/04 12:17:51;;;;;;;1.92;0.80;;;8.80;99.90;;;;;;5005667;28;20046;-72
2023/12/04 12:20:17;;;;;;;5.07;1.38;;;8.80;99.90;;;;;;4999687;28;20029;-72
2023/12/04 12:22:43;;;;;;;6.82;1.38;;;8.80;99.90;;;;;;5014754;28;20040;-73
2023/12/04 12:25:10;;;;;;;5.20;0.85;;;8.80;99.90;;;;;;5003982;28;20044;-73
2023/12/04 12:27:37;;;;;;;2.58;1.70;;;8.90;99.90;;;;;;5018783;28;20065;-73
2023/12/04 12:30:04;;;;;;;1.50;1.15;;;8.80;99.90;;;;;;5003714;28;20041;-73
2023/12/04 12:32:31;;;;;;;1.83;1.00;;;8.80;99.90;;;;;;5012364;28;20033;-76
2023/12/04 12:34:57;;;;;;;1.45;0.95;;;8.80;99.90;;;;;;5002607;28;20050;-74
2023/12/04 12:37:23;;;;;;;1.30;1.08;;;8.80;99.90;;;;;;5010452;28;20048;-73
2023/12/04 12:39:48;;;;;;;3.63;1.33;;;8.80;99.90;;;;;;5003207;28;20041;-74
2023/12/04 12:42:22;;;;;;;3.65;1.13;;;8.80;99.90;;;;;;5008206;28;20030;-75
2023/12/04 12:44:48;;;;;;;8.50;1.50;;;8.80;99.90;;;;;;5004126;28;20037;-72
2023/12/04 12:47:15;;;;;;;13.02;1.80;;;8.80;99.90;;;;;;5005393;28;20414;-73
2023/12/04 12:49:41;;;;;;;4.38;1.77;;;8.80;99.90;;;;;;5015523;28;20028;-73
2023/12/04 12:52:08;;;;;;;1.23;1.10;;;8.80;99.90;;;;;;5005673;28;20029;-73